首页
METAR-TAF:

METAR-TAF

机场 :

Sumburgh, 设德兰群岛, 苏格兰

纬度: 59-53N, 经度: 001-18W, 海拔: 5米

当前天气观测

该预报发布于23分钟前的18:50 UTC
风速24节,风向西
温度 5°C
湿度 75%
气压 993 hPa
能見度: 9000
散云层高于1600英尺, 积雨云.
小阵雨

METAR: EGPB 181850Z 26024KT 9000 -SHRA SCT016CB 05/01 Q0993 TEMPO SHRA

时间: 19:13 (19:13 UTC)

预报

该预报发布于2小时和16分钟前的16:57 UTC
预报有效从18日的 18点(UTC)到 19日的 03点(UTC)
风速25节,风向西转西南
能见度10公里或以上
散云层高于1600英尺
成为
从 18日的 18点(UTC)到 18日的 21点(UTC)
风速18节,风向南转西南
短暂存在
从 18日的 18点(UTC)到 19日的 03点(UTC)
能見度: 6000
多云层高于1200英尺, 积雨云.
阵雨, 阵雨, 小冰雹或雪球
成为
从 19日的 00点(UTC)到 19日的 03点(UTC)
风速8节,风向西

TAF: EGPB 181657Z 1818/1903 25025KT 9999 SCT016 BECMG 1818/1821 21018KT TEMPO 1818/1903 6000 SHRA SHRAGS BKN012CB BECMG 1900/1903 27008KT

超过4000个机场的气象观测和天气预报(METAR&TAF报告)。

可查询的气象台以黄色和红色小点在地图上表示。

将鼠标移到小点上方,可查看气象台名称。

然后点击查看天气观测和预报。

如需切换地图:点击带黑十字的绿色按钮放大地图;点击带横线的绿色按钮缩小地图;或者点击绿色箭头查看邻近地区的地图。


METAR-TAF: